アナディリ の空港の天気 - METARとTAF

アナディリ・ウゴルヌイ空港 ( UHMA / DYR ) - ロシア アナディリ
飛行場実況気象(Metar)
観測時間07/19 00:00 MAGT (07/18 13:00 UTC)
風向・風速西北西 3m/s
視程10km以上
天気現象
少しの雲 雲底高度 240m
全天の8割程度の雲 雲底高度 910m
気温14℃
湿度94%
気圧1007hPa
METARUHMA 181300Z 29003MPS 9999 FEW008 BKN030 14/13 Q1007 R01/////// NOSIG RMK END R01/28003MPS MT OBSC QFE752/1002
過去の天気等 Google飛行場航空写真 Wunderground天気予報

過去48時間のMETAR

飛行場予報(TAF)
発表時間: 7/18 21:40 MAGT (7/18 10:40 UTC)
予報対象時間: 18日23時 MAGT ~ 19日23時 MAGT
風向・風速西 3m/s
視程10km以上
全天の4割程度の雲 雲底高度 460m
全天の8割程度の雲 雲底高度 910m
18日23時 MAGT ~ 19日8時 MAGT に一時的に
視程3100m
天気現象もや
全天の4割程度の雲 雲底高度 240m
全天の8割程度の雲 雲底高度 610m
19日8時 MAGT ~ 19日11時 MAGT に徐々に
風向・風速南 6m/s
全天の4割程度の雲 雲底高度 1220m
19日11時 MAGT ~ 19日17時 MAGT に一時的に
風向・風速南東 3m/s 瞬間風速 8m/s
全天の4割程度の積乱雲 雲底高度 910m
19日17時 MAGT ~ 19日23時 MAGT に一時的に
風向・風速西南西 3m/s
全天の8割程度の雲 雲底高度 910m
TAF UHMA 181040Z 1812/1912 27003MPS 9999 SCT015 BKN030
TEMPO 1812/1821 3100 BR SCT008 BKN020
BECMG 1821/1824 19006MPS SCT040
TEMPO 1900/1906 14003G08MPS SCT030CB
TEMPO 1906/1912 24003MPS BKN030